Time;durP1;ratioP1;P1;durP2;ratioP2;P2;SDS_P1;SDS_P2;PMS_P1;PMS_P2;Temp;Humidity;BMP_temperature;BMP_pressure;BME280_temperature;BME280_humidity;BME280_pressure;Samples;Min_cycle;Max_cycle;Signal;HPM_P1;HPM_P2
2022/05/08 00:02:17;;;;;;;12.50;10.85;;;14.40;73.80;;;;;;5097159;28;20052;-95
2022/05/08 00:04:45;;;;;;;12.75;11.07;;;14.40;73.80;;;;;;5096738;28;20118;-95
2022/05/08 00:07:12;;;;;;;12.20;10.70;;;14.40;73.80;;;;;;5097641;28;20055;-95
2022/05/08 00:09:39;;;;;;;12.77;11.32;;;14.40;73.80;;;;;;5096930;28;20109;-96
2022/05/08 00:12:06;;;;;;;12.98;10.88;;;14.40;73.80;;;;;;5096472;28;20071;-95
2022/05/08 00:14:34;;;;;;;13.32;10.50;;;14.40;73.80;;;;;;5096051;28;20055;-94
2022/05/08 00:17:00;;;;;;;13.52;10.63;;;14.40;73.90;;;;;;5096954;28;20691;-95
2022/05/08 00:19:28;;;;;;;13.05;10.82;;;14.40;73.80;;;;;;5096674;28;20048;-94
2022/05/08 00:21:55;;;;;;;14.65;11.70;;;14.40;73.90;;;;;;5095723;28;20074;-95
2022/05/08 00:24:42;;;;;;;14.82;11.77;;;14.40;73.90;;;;;;5095163;28;20497;-95
2022/05/08 00:27:09;;;;;;;12.93;11.27;;;14.30;73.90;;;;;;5096826;28;20048;-94
2022/05/08 00:29:36;;;;;;;13.30;11.27;;;14.30;73.90;;;;;;5095463;28;20048;-95
2022/05/08 00:32:03;;;;;;;13.10;10.85;;;14.30;73.90;;;;;;5096003;28;20521;-96
2022/05/08 00:34:30;;;;;;;12.48;10.43;;;14.30;74.00;;;;;;5095273;28;20059;-94
2022/05/08 00:36:57;;;;;;;14.63;11.90;;;14.30;74.00;;;;;;5095477;28;20058;-94
2022/05/08 00:39:24;;;;;;;13.68;11.23;;;14.30;74.00;;;;;;5095582;28;20048;-94
2022/05/08 00:41:51;;;;;;;12.75;10.95;;;14.20;74.00;;;;;;5095906;28;20056;-95
2022/05/08 00:44:18;;;;;;;15.95;12.05;;;14.20;74.00;;;;;;5095860;28;20052;-95
2022/05/08 00:46:45;;;;;;;14.52;11.25;;;14.20;74.00;;;;;;5096444;28;20082;-96
2022/05/08 00:49:12;;;;;;;13.95;11.00;;;14.20;74.10;;;;;;5096771;28;20490;-95
2022/05/08 00:51:40;;;;;;;13.25;11.10;;;14.20;74.10;;;;;;5096428;28;20502;-95
2022/05/08 00:54:08;;;;;;;15.82;12.40;;;14.20;74.10;;;;;;5095975;28;20044;-95
2022/05/08 00:56:36;;;;;;;17.90;13.55;;;14.20;74.10;;;;;;5096565;28;20051;-96
2022/05/08 00:59:03;;;;;;;18.40;13.38;;;14.20;74.20;;;;;;5089333;28;20106;-94
2022/05/08 01:01:30;;;;;;;15.05;12.63;;;14.20;74.20;;;;;;5077874;28;20122;-94
2022/05/08 01:03:57;;;;;;;16.20;12.38;;;14.20;74.20;;;;;;5078657;28;20059;-96
2022/05/08 01:06:24;;;;;;;17.40;13.30;;;14.20;74.20;;;;;;5076834;28;20057;-95
2022/05/08 01:08:51;;;;;;;20.23;15.18;;;14.10;74.20;;;;;;5092123;28;20060;-94
2022/05/08 01:11:19;;;;;;;17.92;13.82;;;14.20;74.20;;;;;;5097228;28;20056;-95
2022/05/08 01:13:48;;;;;;;17.88;14.63;;;14.10;74.30;;;;;;5096722;28;20044;-95
2022/05/08 01:16:35;;;;;;;18.60;13.57;;;14.10;74.30;;;;;;5097020;28;20089;-94
2022/05/08 01:19:02;;;;;;;18.42;15.10;;;14.20;74.30;;;;;;5096679;28;20051;-95
2022/05/08 01:21:38;;;;;;;22.55;15.68;;;14.10;74.30;;;;;;5097439;28;20052;-95
2022/05/08 01:24:06;;;;;;;21.98;16.23;;;14.10;74.40;;;;;;5097655;28;20081;-95
2022/05/08 01:26:33;;;;;;;24.27;17.30;;;14.10;74.40;;;;;;5087052;28;20101;-96
2022/05/08 01:29:03;;;;;;;22.58;16.50;;;14.10;74.50;;;;;;5085146;28;20052;-95
2022/05/08 01:31:31;;;;;;;22.77;17.40;;;14.10;74.50;;;;;;5100643;28;20123;-95
2022/05/08 01:33:59;;;;;;;26.15;18.75;;;14.10;74.50;;;;;;5099116;28;20052;-95
2022/05/08 01:36:26;;;;;;;26.42;19.48;;;14.10;74.60;;;;;;5099638;28;20051;-95
2022/05/08 01:38:53;;;;;;;27.27;18.90;;;14.10;74.60;;;;;;5102065;28;20052;-94
2022/05/08 01:41:20;;;;;;;26.77;18.80;;;14.10;74.60;;;;;;5098598;28;20059;-94
2022/05/08 01:43:47;;;;;;;26.13;20.02;;;14.10;74.70;;;;;;5098478;28;20040;-96
2022/05/08 01:46:14;;;;;;;24.40;18.23;;;14.10;74.70;;;;;;5101396;28;20063;-96
2022/05/08 01:48:42;;;;;;;28.35;20.73;;;14.10;74.80;;;;;;5101176;28;20051;-95
2022/05/08 01:51:12;;;;;;;29.77;20.27;;;14.10;74.80;;;;;;5102054;28;20055;-95
2022/05/08 01:53:40;;;;;;;30.77;21.83;;;14.10;74.90;;;;;;5103652;28;20118;-96
2022/05/08 01:56:08;;;;;;;26.20;19.73;;;14.10;74.90;;;;;;5101582;28;20060;-94
2022/05/08 01:58:35;;;;;;;32.28;23.05;;;14.10;75.00;;;;;;5103900;28;20103;-95
2022/05/08 02:01:07;;;;;;;32.65;22.30;;;14.10;75.00;;;;;;5104045;28;20067;-95
2022/05/08 02:03:34;;;;;;;28.73;21.50;;;14.10;75.00;;;;;;5106838;28;20102;-96
2022/05/08 02:06:02;;;;;;;37.25;25.85;;;14.10;75.10;;;;;;5107269;28;20055;-95
2022/05/08 02:08:30;;;;;;;31.75;23.00;;;14.10;75.10;;;;;;5092103;28;20059;-95
2022/05/08 02:10:57;;;;;;;37.15;24.00;;;14.10;75.20;;;;;;5107322;28;20051;-94
2022/05/08 02:13:24;;;;;;;38.63;23.60;;;14.10;75.20;;;;;;5105770;28;20044;-95
2022/05/08 02:15:52;;;;;;;36.35;24.05;;;14.10;75.30;;;;;;5107745;28;20054;-95
2022/05/08 02:18:36;;;;;;;38.45;25.55;;;14.10;75.30;;;;;;5106978;28;20077;-95
2022/05/08 02:21:04;;;;;;;36.85;25.83;;;14.10;75.30;;;;;;5106615;28;20055;-96
2022/05/08 02:23:31;;;;;;;36.95;24.98;;;14.10;75.40;;;;;;5109379;28;20047;-96
2022/05/08 02:26:03;;;;;;;36.50;24.88;;;14.10;75.40;;;;;;5109879;28;20055;-95
2022/05/08 02:28:31;;;;;;;36.20;25.45;;;14.10;75.40;;;;;;5109688;28;20079;-96
2022/05/08 02:31:00;;;;;;;39.55;27.17;;;14.10;75.50;;;;;;5108258;28;20432;-95
2022/05/08 02:33:29;;;;;;;44.38;29.02;;;14.20;75.50;;;;;;5107647;28;20060;-96
2022/05/08 02:35:57;;;;;;;43.00;28.38;;;14.10;75.50;;;;;;5105879;28;20051;-95
2022/05/08 02:38:42;;;;;;;44.40;28.17;;;14.10;75.50;;;;;;5101988;28;20202;-94
2022/05/08 02:41:09;;;;;;;42.78;28.05;;;14.10;75.60;;;;;;5105952;28;20423;-96
2022/05/08 02:43:36;;;;;;;40.88;27.70;;;14.20;75.60;;;;;;5106132;28;20135;-94
2022/05/08 02:46:03;;;;;;;45.47;29.38;;;14.20;75.70;;;;;;5106417;28;20056;-95
2022/05/08 02:48:31;;;;;;;46.80;29.88;;;14.20;75.70;;;;;;5107724;28;20067;-95
2022/05/08 02:50:59;;;;;;;47.20;31.45;;;14.20;75.80;;;;;;5104326;28;20052;-95
2022/05/08 02:53:26;;;;;;;46.63;30.92;;;14.20;75.80;;;;;;5108291;28;20044;-95
2022/05/08 02:59:00;;;;;;;50.50;31.23;;;14.20;75.80;;;;;;5105463;28;20059;-95
2022/05/08 03:01:29;;;;;;;48.67;31.13;;;14.20;75.90;;;;;;5104123;28;20088;-95
2022/05/08 03:03:57;;;;;;;45.00;28.92;;;14.20;75.90;;;;;;5105633;28;20044;-95
2022/05/08 03:09:10;;;;;;;44.70;31.08;;;14.20;76.00;;;;;;5104419;28;20052;-95
2022/05/08 03:11:37;;;;;;;44.55;30.98;;;14.20;76.00;;;;;;5108109;28;20510;-95
2022/05/08 03:14:04;;;;;;;47.60;32.28;;;14.20;76.00;;;;;;5104859;28;20052;-96
2022/05/08 03:16:31;;;;;;;43.75;30.33;;;14.20;76.10;;;;;;5105307;28;20081;-96
2022/05/08 03:19:00;;;;;;;47.28;31.35;;;14.20;76.10;;;;;;5089037;28;20139;-95
2022/05/08 03:21:29;;;;;;;49.10;33.03;;;14.20;76.20;;;;;;5105954;28;20063;-96
2022/05/08 03:23:56;;;;;;;46.47;31.92;;;14.20;76.20;;;;;;5102160;28;20040;-95
2022/05/08 03:26:28;;;;;;;47.35;31.25;;;14.20;76.20;;;;;;5093490;28;20108;-95
2022/05/08 03:29:03;;;;;;;44.13;31.42;;;14.20;76.20;;;;;;5105045;28;20111;-95
2022/05/08 03:31:32;;;;;;;48.00;32.35;;;14.20;76.20;;;;;;5108041;28;20048;-96
2022/05/08 03:34:06;;;;;;;45.65;31.02;;;14.20;76.30;;;;;;5108704;28;20055;-95
2022/05/08 03:36:40;;;;;;;42.00;30.50;;;14.20;76.30;;;;;;5109428;28;20075;-94
2022/05/08 03:39:11;;;;;;;45.15;32.08;;;14.20;76.30;;;;;;5088214;28;20111;-96
2022/05/08 03:41:40;;;;;;;48.05;32.72;;;14.20;76.30;;;;;;5108503;28;20141;-94
2022/05/08 03:44:07;;;;;;;45.92;32.90;;;14.20;76.40;;;;;;5109019;28;20044;-96
2022/05/08 03:46:37;;;;;;;41.90;30.92;;;14.20;76.40;;;;;;5109313;28;20058;-96
2022/05/08 03:49:04;;;;;;;41.95;32.25;;;14.20;76.40;;;;;;5097277;28;20052;-94
2022/05/08 03:51:50;;;;;;;45.38;30.42;;;14.20;76.40;;;;;;5095706;28;20055;-94
2022/05/08 03:54:17;;;;;;;44.35;31.95;;;14.20;76.40;;;;;;5095669;28;20453;-94
2022/05/08 03:56:44;;;;;;;40.97;31.13;;;14.20;76.40;;;;;;5095925;28;20067;-95
2022/05/08 03:59:11;;;;;;;43.30;30.63;;;14.20;76.50;;;;;;5095916;28;20101;-94
2022/05/08 04:01:37;;;;;;;49.33;31.90;;;14.20;76.50;;;;;;5096141;28;20058;-93
2022/05/08 04:04:05;;;;;;;44.10;31.48;;;14.20;76.50;;;;;;5095817;28;20067;-94
2022/05/08 04:06:31;;;;;;;44.42;30.58;;;14.20;76.50;;;;;;5095566;28;20056;-95
2022/05/08 04:09:17;;;;;;;42.05;31.33;;;14.10;76.50;;;;;;5096220;28;20059;-96
2022/05/08 04:11:44;;;;;;;38.70;28.42;;;14.20;76.60;;;;;;5095821;28;20055;-94
2022/05/08 04:14:12;;;;;;;40.70;29.38;;;14.10;76.60;;;;;;5096532;28;20073;-93
2022/05/08 04:16:39;;;;;;;42.95;29.65;;;14.20;76.60;;;;;;5096576;28;20047;-94
2022/05/08 04:19:06;;;;;;;40.33;29.25;;;14.10;76.60;;;;;;5091880;28;20391;-94
2022/05/08 04:21:33;;;;;;;39.05;28.17;;;14.20;76.60;;;;;;5095362;28;20125;-93
2022/05/08 04:24:19;;;;;;;36.85;28.67;;;14.20;76.60;;;;;;5080030;28;20056;-93
2022/05/08 04:26:46;;;;;;;39.20;27.73;;;14.10;76.60;;;;;;5084732;28;20417;-94
2022/05/08 04:29:13;;;;;;;33.15;27.17;;;14.10;76.60;;;;;;5095680;28;20508;-93
2022/05/08 04:31:40;;;;;;;36.25;27.15;;;14.10;76.60;;;;;;5095314;28;20056;-94
2022/05/08 04:34:07;;;;;;;37.78;27.33;;;14.10;76.60;;;;;;5096272;28;20055;-93
2022/05/08 04:36:34;;;;;;;41.47;28.35;;;14.10;76.60;;;;;;5094897;28;20060;-94
2022/05/08 04:39:01;;;;;;;35.80;25.85;;;14.10;76.60;;;;;;5095507;28;20093;-94
2022/05/08 04:41:29;;;;;;;33.67;25.83;;;14.10;76.60;;;;;;5079324;28;20063;-94
2022/05/08 04:44:00;;;;;;;35.22;25.77;;;14.10;76.60;;;;;;5095830;28;20044;-93
2022/05/08 04:46:44;;;;;;;35.25;25.08;;;14.00;76.60;;;;;;5095390;28;20043;-95
2022/05/08 04:49:11;;;;;;;36.17;25.42;;;14.10;76.60;;;;;;5094904;28;20506;-94
2022/05/08 04:51:38;;;;;;;34.28;24.10;;;14.00;76.60;;;;;;5093801;28;20063;-93
2022/05/08 04:54:05;;;;;;;35.33;23.83;;;14.00;76.60;;;;;;5095045;28;20501;-92
2022/05/08 04:56:32;;;;;;;32.13;24.23;;;14.00;76.60;;;;;;5094775;28;20055;-94
2022/05/08 04:58:59;;;;;;;34.50;23.33;;;14.00;76.60;;;;;;5095271;28;20053;-93
2022/05/08 05:01:26;;;;;;;28.38;21.38;;;14.00;76.60;;;;;;5094601;28;20059;-94
2022/05/08 05:03:53;;;;;;;30.05;22.70;;;13.90;76.60;;;;;;5094337;28;20055;-93
2022/05/08 05:06:23;;;;;;;34.67;22.65;;;13.90;76.60;;;;;;5094802;28;20121;-94
2022/05/08 05:08:50;;;;;;;31.27;23.05;;;13.90;76.60;;;;;;5094930;28;20048;-94
2022/05/08 05:11:17;;;;;;;30.45;22.65;;;13.90;76.60;;;;;;5094144;28;20051;-94
2022/05/08 05:13:44;;;;;;;33.40;22.85;;;13.90;76.60;;;;;;5094244;28;20060;-93
2022/05/08 05:16:11;;;;;;;28.73;21.90;;;13.90;76.70;;;;;;5094456;28;20063;-94
2022/05/08 05:18:38;;;;;;;30.10;21.75;;;13.90;76.60;;;;;;5094034;28;20048;-93
2022/05/08 05:21:05;;;;;;;27.17;20.65;;;13.90;76.70;;;;;;5094424;28;20056;-94
2022/05/08 05:23:35;;;;;;;31.45;22.35;;;13.90;76.60;;;;;;5094480;28;20060;-94
2022/05/08 05:26:03;;;;;;;31.55;21.33;;;13.90;76.60;;;;;;5094294;28;20052;-93
2022/05/08 05:28:30;;;;;;;27.10;21.10;;;13.90;76.60;;;;;;5094298;28;20122;-93
2022/05/08 05:30:57;;;;;;;25.63;20.15;;;13.90;76.60;;;;;;5094176;28;20055;-94
2022/05/08 05:33:24;;;;;;;26.23;19.88;;;13.90;76.60;;;;;;5094429;28;20538;-94
2022/05/08 05:35:52;;;;;;;25.98;19.50;;;13.90;76.60;;;;;;5095041;28;20052;-92
2022/05/08 05:38:18;;;;;;;27.38;20.63;;;13.90;76.60;;;;;;5094602;28;20571;-93
2022/05/08 05:40:46;;;;;;;26.70;18.08;;;13.90;76.60;;;;;;5092978;28;20056;-92
2022/05/08 05:43:12;;;;;;;23.92;18.17;;;13.90;76.60;;;;;;5094599;28;20060;-92
2022/05/08 05:45:40;;;;;;;26.17;19.02;;;13.90;76.60;;;;;;5094679;28;20453;-93
2022/05/08 05:53:11;;;;;;;24.83;18.33;;;13.90;76.60;;;;;;5036590;28;20057;-95
2022/05/08 05:55:38;;;;;;;23.52;18.00;;;13.90;76.50;;;;;;5015904;28;20096;-94
2022/05/08 05:58:04;;;;;;;23.55;17.42;;;13.90;76.50;;;;;;5014698;28;20503;-94
2022/05/08 06:00:32;;;;;;;23.92;17.10;;;13.90;76.50;;;;;;5034138;28;20041;-94
2022/05/08 06:02:58;;;;;;;25.23;17.88;;;13.90;76.50;;;;;;5025120;28;20084;-95
2022/05/08 06:05:26;;;;;;;24.00;17.13;;;13.90;76.50;;;;;;5090435;22;20115;-94
2022/05/08 06:08:00;;;;;;;21.52;16.52;;;13.90;76.50;;;;;;5072101;28;20041;-95
2022/05/08 06:10:29;;;;;;;24.15;16.52;;;13.90;76.50;;;;;;5064521;28;20495;-94
2022/05/08 06:12:56;;;;;;;21.25;16.27;;;13.90;76.50;;;;;;5070647;28;20055;-94
2022/05/08 06:15:23;;;;;;;27.75;16.20;;;13.90;76.40;;;;;;5052915;28;20065;-94
2022/05/08 06:17:50;;;;;;;21.65;15.18;;;13.90;76.40;;;;;;5055981;28;20061;-95
2022/05/08 06:20:17;;;;;;;19.90;14.48;;;13.90;76.40;;;;;;5061517;28;20064;-94
2022/05/08 06:22:45;;;;;;;23.65;15.15;;;13.90;76.40;;;;;;5073351;28;20109;-95
2022/05/08 06:25:12;;;;;;;19.77;15.07;;;14.00;76.30;;;;;;5073855;28;20075;-95
2022/05/08 06:28:19;;;;;;;22.00;14.70;;;14.00;76.30;;;;;;5055223;28;20049;-95
2022/05/08 06:31:03;;;;;;;22.70;15.07;;;14.00;76.30;;;;;;5067035;28;20526;-95
2022/05/08 06:33:32;;;;;;;20.42;13.90;;;14.00;76.20;;;;;;5065819;28;20079;-95
2022/05/08 06:35:59;;;;;;;20.85;14.10;;;14.00;76.20;;;;;;5065717;28;20053;-95
2022/05/08 06:38:26;;;;;;;20.15;14.18;;;14.00;76.10;;;;;;5054797;28;20083;-92
2022/05/08 06:40:53;;;;;;;18.85;13.65;;;14.00;76.10;;;;;;5056025;28;20060;-95
2022/05/08 06:43:21;;;;;;;20.20;13.63;;;14.00;76.00;;;;;;5059190;28;20057;-94
2022/05/08 06:45:49;;;;;;;18.02;13.05;;;14.00;75.90;;;;;;5065006;28;20076;-94
2022/05/08 06:48:16;;;;;;;18.73;13.90;;;14.00;75.90;;;;;;5064382;28;20079;-94
2022/05/08 06:50:43;;;;;;;20.30;13.98;;;14.10;75.90;;;;;;5045675;28;20045;-94
2022/05/08 06:53:12;;;;;;;19.27;13.02;;;14.10;75.90;;;;;;5065916;28;20049;-95
2022/05/08 06:55:43;;;;;;;19.83;12.95;;;14.10;75.90;;;;;;5063101;28;20056;-95
2022/05/08 06:58:09;;;;;;;17.30;13.52;;;14.10;75.80;;;;;;5062927;28;20069;-94
2022/05/08 07:03:22;;;;;;;16.45;12.75;;;14.10;75.70;;;;;;5050582;28;20067;-95
2022/05/08 07:05:49;;;;;;;19.95;13.52;;;14.10;75.70;;;;;;5057443;28;20057;-93
2022/05/08 07:08:16;;;;;;;17.73;13.43;;;14.20;75.60;;;;;;5054455;28;20052;-95
2022/05/08 07:10:43;;;;;;;19.17;13.65;;;14.20;75.50;;;;;;5054450;28;20053;-94
2022/05/08 07:13:10;;;;;;;24.08;13.70;;;14.20;75.40;;;;;;5053645;28;20048;-93
2022/05/08 07:15:38;;;;;;;18.88;13.48;;;14.20;75.40;;;;;;5059411;28;20052;-94
2022/05/08 07:18:25;;;;;;;23.35;14.05;;;14.20;75.30;;;;;;5058453;28;20049;-95
2022/05/08 07:20:52;;;;;;;19.85;13.38;;;14.20;75.30;;;;;;5058104;28;20057;-94
2022/05/08 07:23:20;;;;;;;23.88;13.40;;;14.20;75.20;;;;;;5057776;28;20056;-93
2022/05/08 07:25:47;;;;;;;23.27;13.73;;;14.20;75.20;;;;;;5059451;28;20119;-94
2022/05/08 07:28:14;;;;;;;19.83;13.93;;;14.30;75.20;;;;;;5058972;28;20060;-95
2022/05/08 07:30:41;;;;;;;18.67;13.13;;;14.30;75.10;;;;;;5060955;28;20057;-94
2022/05/08 07:33:08;;;;;;;22.50;15.30;;;14.30;75.10;;;;;;5059685;28;20499;-94
2022/05/08 07:38:28;;;;;;;21.40;12.77;;;14.30;75.10;;;;;;5060047;28;20056;-95
2022/05/08 07:40:59;;;;;;;20.25;13.75;;;14.30;75.10;;;;;;5060048;28;20053;-94
2022/05/08 07:43:26;;;;;;;22.35;14.23;;;14.40;75.10;;;;;;5057193;28;20400;-96
2022/05/08 07:45:53;;;;;;;24.88;14.25;;;14.40;75.10;;;;;;5057124;28;20056;-94
2022/05/08 07:48:21;;;;;;;21.65;13.75;;;14.40;75.10;;;;;;5056452;28;20487;-94
2022/05/08 07:50:53;;;;;;;22.20;14.27;;;14.40;75.00;;;;;;5062184;28;20053;-95
2022/05/08 07:53:21;;;;;;;22.50;14.43;;;14.40;74.90;;;;;;5055937;28;20049;-94
2022/05/08 07:55:51;;;;;;;18.35;11.90;;;14.40;74.80;;;;;;5058713;28;20052;-93
2022/05/08 07:58:23;;;;;;;17.88;12.40;;;14.50;74.80;;;;;;5059478;28;20083;-94
2022/05/08 08:00:53;;;;;;;20.65;11.70;;;14.50;74.70;;;;;;5058358;28;20052;-93
2022/05/08 08:06:08;;;;;;;18.45;12.32;;;14.60;74.70;;;;;;5060936;28;20045;-94
2022/05/08 08:08:38;;;;;;;22.20;13.23;;;14.60;74.60;;;;;;5060955;28;20045;-95
2022/05/08 08:11:06;;;;;;;17.92;11.80;;;14.60;74.60;;;;;;5062387;28;20057;-95
2022/05/08 08:13:34;;;;;;;19.98;11.65;;;14.70;74.60;;;;;;5057448;28;20056;-93
2022/05/08 08:16:04;;;;;;;16.92;11.90;;;14.80;74.50;;;;;;5070166;28;20056;-95
2022/05/08 08:18:43;;;;;;;17.83;11.70;;;14.80;74.50;;;;;;5064315;28;20063;-94
2022/05/08 08:21:12;;;;;;;19.95;12.25;;;14.90;74.40;;;;;;5055305;28;20044;-94
2022/05/08 08:23:41;;;;;;;23.42;15.48;;;14.90;74.30;;;;;;5041326;28;20052;-95
2022/05/08 08:26:11;;;;;;;19.58;12.93;;;15.00;74.20;;;;;;5049992;28;20053;-95
2022/05/08 08:28:38;;;;;;;21.17;12.90;;;15.00;74.10;;;;;;5034558;28;20057;-92
2022/05/08 08:31:06;;;;;;;18.05;12.27;;;15.20;74.00;;;;;;5035496;28;20057;-94
2022/05/08 08:33:36;;;;;;;20.17;12.82;;;15.20;73.80;;;;;;5050836;28;20049;-93
2022/05/08 08:36:03;;;;;;;16.38;12.05;;;15.30;73.70;;;;;;5046864;28;20057;-94
2022/05/08 08:38:30;;;;;;;20.77;12.70;;;15.40;73.60;;;;;;5042435;28;20057;-95
2022/05/08 08:41:02;;;;;;;18.67;12.15;;;15.40;73.40;;;;;;5038056;28;20054;-93
2022/05/08 08:47:42;;;;;;;17.38;11.90;;;15.50;73.30;;;;;;5034265;28;20049;-94
2022/05/08 08:49:20;;;;;;;20.13;12.45;;;15.60;73.00;;;;;;5035649;28;20080;-93
2022/05/08 08:51:48;;;;;;;;;;;15.70;72.90;;;;;;5035896;28;20057;-94
2022/05/08 08:54:20;;;;;;;14.48;11.70;;;15.80;72.70;;;;;;5051008;28;19967;-93
2022/05/08 08:59:35;;;;;;;18.00;11.25;;;15.90;72.50;;;;;;5055066;28;20061;-93
2022/05/08 09:02:02;;;;;;;18.38;12.13;;;15.90;72.30;;;;;;5037511;28;20049;-94
2022/05/08 09:04:32;;;;;;;18.55;12.55;;;16.00;72.10;;;;;;5051161;28;20499;-95
2022/05/08 09:07:00;;;;;;;14.50;10.95;;;16.00;72.00;;;;;;5033654;28;20115;-93
2022/05/08 09:09:34;;;;;;;16.00;11.93;;;16.10;71.90;;;;;;5059569;28;20075;-94
2022/05/08 09:12:00;;;;;;;16.40;11.65;;;16.20;71.80;;;;;;5052862;28;20053;-92
2022/05/08 09:14:35;;;;;;;17.38;13.63;;;16.20;71.60;;;;;;5046325;28;20078;-94
2022/05/08 09:17:04;;;;;;;16.25;11.23;;;16.30;71.50;;;;;;5047260;28;20462;-94
2022/05/08 09:19:37;;;;;;;16.08;12.02;;;16.30;71.40;;;;;;5038902;28;20045;-94
2022/05/08 09:22:22;;;;;;;19.05;11.63;;;16.40;71.30;;;;;;5054842;28;20071;-95
2022/05/08 09:24:52;;;;;;;15.02;10.80;;;16.50;71.10;;;;;;5036287;28;20045;-94
2022/05/08 09:27:19;;;;;;;19.55;11.70;;;16.60;71.00;;;;;;5019019;28;20053;-94
2022/05/08 09:29:47;;;;;;;16.02;11.63;;;16.60;70.90;;;;;;5047225;28;20427;-94
2022/05/08 09:32:38;;;;;;;15.18;10.88;;;16.70;70.80;;;;;;5054971;28;20045;-93
2022/05/08 09:35:07;;;;;;;18.35;11.60;;;16.70;70.70;;;;;;5051917;28;20462;-95
2022/05/08 09:37:50;;;;;;;14.38;11.13;;;16.80;70.50;;;;;;5039688;28;20057;-95
2022/05/08 09:40:19;;;;;;;16.73;11.73;;;16.90;70.30;;;;;;5053295;28;20053;-95
2022/05/08 09:42:47;;;;;;;13.32;10.73;;;16.90;70.20;;;;;;5055108;28;20303;-94
2022/05/08 09:45:14;;;;;;;14.32;11.07;;;17.00;70.10;;;;;;5053357;28;20057;-95
2022/05/08 09:47:47;;;;;;;13.88;10.98;;;17.00;69.90;;;;;;5056864;28;20525;-96
2022/05/08 09:50:17;;;;;;;17.40;10.35;;;17.10;69.90;;;;;;5050999;28;20053;-95
2022/05/08 09:52:46;;;;;;;14.57;10.60;;;17.20;69.70;;;;;;5019499;28;20103;-95
2022/05/08 09:55:14;;;;;;;18.23;11.90;;;17.30;69.60;;;;;;5035592;28;20116;-95
2022/05/08 09:57:41;;;;;;;15.82;10.80;;;17.30;69.50;;;;;;5054961;28;20060;-95
2022/05/08 10:00:13;;;;;;;14.85;11.10;;;17.40;69.30;;;;;;5022044;28;20104;-94
2022/05/08 10:02:43;;;;;;;13.13;9.98;;;17.40;69.10;;;;;;5035721;28;20057;-94
2022/05/08 10:05:11;;;;;;;14.48;10.75;;;17.50;69.00;;;;;;5041709;28;20057;-94
2022/05/08 10:07:40;;;;;;;14.27;10.68;;;17.60;68.90;;;;;;5054439;28;20048;-94
2022/05/08 10:15:46;;;;;;;15.63;10.65;;;17.90;68.40;;;;;;5034940;28;20054;-95
2022/05/08 10:18:27;;;;;;;12.20;10.50;;;17.90;68.20;;;;;;5049754;28;20052;-96
2022/05/08 10:21:02;;;;;;;14.23;10.80;;;18.00;68.00;;;;;;5049271;28;20077;-94
2022/05/08 10:23:37;;;;;;;12.85;10.13;;;18.00;67.80;;;;;;5016192;28;20061;-93
2022/05/08 10:26:21;;;;;;;14.32;10.00;;;18.10;67.70;;;;;;5036119;28;20103;-94
2022/05/08 10:29:13;;;;;;;13.23;10.10;;;18.10;67.50;;;;;;5014832;28;20526;-92
2022/05/08 10:31:43;;;;;;;13.38;10.30;;;18.20;67.40;;;;;;5034085;28;20050;-92
2022/05/08 10:34:12;;;;;;;14.85;10.15;;;18.20;67.30;;;;;;5048203;28;20418;-93
2022/05/08 10:36:42;;;;;;;12.40;9.65;;;18.30;67.20;;;;;;5044908;28;20049;-92
2022/05/08 10:39:38;;;;;;;14.48;10.30;;;18.30;67.10;;;;;;5039636;28;20099;-94
2022/05/08 10:42:05;;;;;;;18.17;10.05;;;18.40;67.00;;;;;;5040581;28;20122;-93
2022/05/08 10:44:37;;;;;;;12.60;9.63;;;18.40;66.90;;;;;;5045360;28;20049;-92
2022/05/08 10:47:32;;;;;;;11.95;9.77;;;18.40;66.80;;;;;;5035168;28;20045;-92
2022/05/08 10:50:03;;;;;;;14.20;9.40;;;18.40;66.70;;;;;;5038640;28;20053;-92
2022/05/08 10:52:32;;;;;;;11.90;9.13;;;18.40;66.60;;;;;;5036161;28;20488;-92
2022/05/08 10:55:02;;;;;;;14.43;9.75;;;18.50;66.50;;;;;;5040507;28;20084;-93
2022/05/08 10:57:37;;;;;;;11.93;8.75;;;18.50;66.40;;;;;;5048874;28;20063;-93
2022/05/08 11:00:05;;;;;;;14.57;9.13;;;18.60;66.30;;;;;;5047300;28;20489;-94
2022/05/08 11:02:43;;;;;;;14.43;9.63;;;18.60;66.20;;;;;;5040371;28;20505;-93
2022/05/08 11:05:23;;;;;;;11.25;8.82;;;18.70;66.10;;;;;;5051621;28;20045;-95
2022/05/08 11:07:56;;;;;;;13.68;8.98;;;18.70;66.00;;;;;;5037319;28;20045;-93
2022/05/08 11:10:24;;;;;;;11.70;8.53;;;18.80;65.90;;;;;;5037416;28;20096;-92
2022/05/08 11:13:02;;;;;;;13.82;9.38;;;18.90;65.70;;;;;;5049263;28;20049;-93
2022/05/08 11:15:34;;;;;;;12.52;8.23;;;18.90;65.50;;;;;;5040350;28;20054;-94
2022/05/08 11:18:24;;;;;;;16.10;10.15;;;19.00;65.30;;;;;;5040125;28;20044;-93
2022/05/08 11:20:54;;;;;;;12.13;9.60;;;19.10;65.10;;;;;;5042941;28;20085;-92
2022/05/08 11:23:23;;;;;;;12.43;9.02;;;19.10;64.80;;;;;;5039438;28;20503;-92
2022/05/08 11:25:55;;;;;;;10.75;7.75;;;19.20;64.60;;;;;;5037935;28;20044;-94
2022/05/08 11:28:23;;;;;;;11.10;7.57;;;19.20;64.40;;;;;;5051613;28;20045;-92
2022/05/08 11:30:52;;;;;;;15.98;10.02;;;19.30;64.30;;;;;;5039609;28;20057;-92
2022/05/08 11:36:51;;;;;;;9.88;8.23;;;19.30;63.90;;;;;;5035990;28;20111;-93
2022/05/08 11:39:19;;;;;;;11.80;7.97;;;19.30;63.70;;;;;;5028290;28;20107;-93
2022/05/08 11:42:05;;;;;;;11.77;7.75;;;19.30;63.60;;;;;;5042468;28;20102;-92
2022/05/08 11:44:32;;;;;;;10.52;7.90;;;19.30;63.50;;;;;;5053291;28;20110;-92
2022/05/08 11:47:00;;;;;;;11.23;7.57;;;19.30;63.40;;;;;;5054810;28;20458;-95
2022/05/08 11:49:32;;;;;;;11.52;7.70;;;19.40;63.30;;;;;;5055303;28;20107;-93
2022/05/08 11:52:04;;;;;;;13.80;8.00;;;19.40;63.20;;;;;;5036124;28;20073;-93
2022/05/08 11:54:35;;;;;;;13.15;8.05;;;19.40;63.10;;;;;;5034895;28;20049;-91
2022/05/08 11:57:13;;;;;;;14.13;7.80;;;19.40;63.00;;;;;;5043254;28;20495;-92
2022/05/08 11:59:41;;;;;;;12.50;8.27;;;19.40;63.00;;;;;;5043715;28;20055;-92
2022/05/08 12:02:09;;;;;;;11.00;7.82;;;19.40;62.90;;;;;;5036499;28;20075;-92
2022/05/08 12:04:37;;;;;;;10.65;7.78;;;19.30;62.90;;;;;;5050824;28;20045;-92
2022/05/08 12:07:08;;;;;;;13.02;8.77;;;19.30;62.80;;;;;;5039478;28;20053;-92
2022/05/08 12:09:37;;;;;;;13.48;8.10;;;19.40;62.80;;;;;;5038432;28;20057;-93
2022/05/08 12:12:38;;;;;;;10.20;7.45;;;19.30;62.80;;;;;;5043520;28;20040;-92
2022/05/08 12:15:24;;;;;;;10.82;8.35;;;19.30;62.70;;;;;;5047320;28;20053;-91
2022/05/08 12:17:54;;;;;;;15.02;8.90;;;19.30;62.70;;;;;;5049420;28;20041;-93
2022/05/08 12:20:26;;;;;;;10.98;7.25;;;19.30;62.60;;;;;;5045540;28;20095;-91
2022/05/08 12:23:10;;;;;;;14.95;9.52;;;19.30;62.60;;;;;;5052928;28;20065;-92
2022/05/08 12:25:40;;;;;;;11.98;7.65;;;19.30;62.60;;;;;;5051182;28;20080;-94
2022/05/08 12:28:09;;;;;;;10.95;7.78;;;19.30;62.50;;;;;;5034717;28;20053;-92
2022/05/08 12:30:36;;;;;;;10.75;7.35;;;19.20;62.50;;;;;;5033369;28;20120;-93
2022/05/08 12:33:21;;;;;;;11.75;8.10;;;19.20;62.50;;;;;;5047868;28;20052;-93
2022/05/08 12:38:33;;;;;;;11.27;7.35;;;19.20;62.50;;;;;;5041547;28;20071;-95
2022/05/08 12:41:00;;;;;;;11.60;7.63;;;19.20;62.50;;;;;;5052247;28;20083;-92
2022/05/08 12:43:27;;;;;;;11.48;7.28;;;19.20;62.40;;;;;;5035574;28;20500;-93
2022/05/08 12:45:54;;;;;;;14.20;7.68;;;19.10;62.40;;;;;;5035949;28;20107;-92
2022/05/08 12:51:06;;;;;;;14.02;7.38;;;19.20;62.30;;;;;;5062934;28;20049;-95
2022/05/08 12:53:35;;;;;;;10.57;7.57;;;19.10;62.40;;;;;;5048061;28;20057;-94
2022/05/08 12:56:02;;;;;;;11.98;7.18;;;19.20;62.30;;;;;;5038746;28;20103;-94
2022/05/08 13:01:15;;;;;;;11.25;6.80;;;19.10;62.30;;;;;;5036570;28;20049;-94
2022/05/08 13:03:42;;;;;;;9.13;6.22;;;19.10;62.20;;;;;;5035723;28;20059;-96
2022/05/08 13:06:09;;;;;;;10.75;6.55;;;19.20;62.20;;;;;;5034614;28;20049;-94
2022/05/08 13:08:36;;;;;;;11.48;6.47;;;19.20;62.10;;;;;;5036864;28;20131;-93
2022/05/08 13:11:03;;;;;;;10.15;6.05;;;19.20;62.10;;;;;;5034753;28;20053;-95
2022/05/08 13:13:36;;;;;;;9.32;5.88;;;19.30;62.10;;;;;;5037376;28;20045;-94
2022/05/08 13:16:11;;;;;;;8.75;5.32;;;19.30;61.90;;;;;;5057139;28;20613;-95
2022/05/08 13:18:38;;;;;;;7.93;5.40;;;19.40;61.80;;;;;;5034282;28;20429;-95
2022/05/08 13:21:05;;;;;;;8.40;5.03;;;19.40;61.70;;;;;;5035005;28;20049;-94
2022/05/08 13:23:32;;;;;;;8.98;4.65;;;19.50;61.40;;;;;;5033929;28;20458;-95
2022/05/08 13:25:59;;;;;;;10.88;5.70;;;19.50;61.20;;;;;;5042107;28;20101;-91
2022/05/08 13:28:29;;;;;;;12.52;5.28;;;19.60;61.10;;;;;;5051750;28;20461;-92